Time;durP1;ratioP1;P1;durP2;ratioP2;P2;SDS_P1;SDS_P2;PMS_P1;PMS_P2;Temp;Humidity;BMP_temperature;BMP_pressure;BME280_temperature;BME280_humidity;BME280_pressure;Samples;Min_cycle;Max_cycle;Signal;HPM_P1;HPM_P2
2022/06/27 00:02:20;;;;;;;3.33;2.00;;;18.00;99.90;;;;;;5098573;28;20117;-62
2022/06/27 00:04:46;;;;;;;2.70;2.20;;;18.00;99.90;;;;;;5097834;28;20060;-62
2022/06/27 00:07:11;;;;;;;4.78;2.25;;;18.00;99.90;;;;;;5097923;28;20307;-61
2022/06/27 00:09:38;;;;;;;4.22;1.88;;;18.20;99.90;;;;;;5097390;28;20036;-63
2022/06/27 00:12:03;;;;;;;;;;;18.30;99.90;;;;;;5097516;28;20052;-61
2022/06/27 00:14:29;;;;;;;4.28;1.88;;;18.30;99.90;;;;;;5097217;28;20354;-62
2022/06/27 00:16:55;;;;;;;5.53;2.40;;;18.60;99.90;;;;;;5096945;28;20016;-61
2022/06/27 00:19:20;;;;;;;3.95;1.70;;;18.70;99.90;;;;;;5097347;28;20032;-61
2022/06/27 00:21:46;;;;;;;4.40;1.70;;;18.90;99.90;;;;;;5078302;28;20020;-62
2022/06/27 00:24:11;;;;;;;3.80;1.48;;;18.90;99.90;;;;;;5096718;28;20028;-60
2022/06/27 00:26:37;;;;;;;4.55;1.70;;;18.90;99.90;;;;;;5096882;28;20024;-62
2022/06/27 00:29:03;;;;;;;3.08;1.50;;;18.90;99.90;;;;;;5096549;28;20400;-62
2022/06/27 00:31:28;;;;;;;5.15;1.90;;;18.90;99.90;;;;;;5096418;28;20138;-63
2022/06/27 00:33:54;;;;;;;2.30;1.48;;;18.80;99.90;;;;;;5096648;28;20120;-62
2022/06/27 00:36:20;;;;;;;4.43;1.60;;;18.70;99.90;;;;;;5096636;28;20028;-62
2022/06/27 00:38:45;;;;;;;4.80;1.60;;;18.70;99.90;;;;;;5096407;28;20553;-60
2022/06/27 00:41:11;;;;;;;3.72;1.88;;;18.60;99.90;;;;;;5096513;28;20487;-60
2022/06/27 00:43:36;;;;;;;4.15;1.80;;;18.60;99.90;;;;;;5097029;28;20028;-61
2022/06/27 00:46:02;;;;;;;4.28;2.15;;;18.50;99.90;;;;;;5078173;28;20031;-62
2022/06/27 00:48:28;;;;;;;3.88;1.65;;;18.50;99.90;;;;;;5096398;28;20043;-62
2022/06/27 00:50:54;;;;;;;4.75;1.52;;;18.40;99.90;;;;;;5096528;28;20024;-61
2022/06/27 00:53:20;;;;;;;5.88;1.42;;;18.30;99.90;;;;;;5078116;28;20036;-63
2022/06/27 00:55:46;;;;;;;1.73;1.30;;;18.10;99.90;;;;;;5096138;28;20024;-63
2022/06/27 00:58:11;;;;;;;3.28;1.30;;;18.10;99.90;;;;;;5096353;28;20392;-62
2022/06/27 01:00:37;;;;;;;3.10;1.67;;;18.00;99.90;;;;;;5096274;28;20043;-59
2022/06/27 01:03:02;;;;;;;3.72;1.60;;;18.00;99.90;;;;;;5095806;28;20266;-62
2022/06/27 01:05:28;;;;;;;4.63;1.50;;;17.90;99.90;;;;;;5095806;28;20495;-61
2022/06/27 01:07:54;;;;;;;1.92;1.50;;;17.90;99.90;;;;;;5095988;28;20039;-62
2022/06/27 01:10:19;;;;;;;2.65;1.38;;;17.80;99.90;;;;;;5095865;28;20504;-62
2022/06/27 01:12:47;;;;;;;2.50;1.45;;;17.80;99.90;;;;;;5096058;28;20055;-62
2022/06/27 01:15:13;;;;;;;4.05;1.58;;;17.80;99.90;;;;;;5077738;28;20024;-61
2022/06/27 01:17:39;;;;;;;3.97;1.42;;;17.80;99.90;;;;;;5095854;28;20116;-63
2022/06/27 01:20:06;;;;;;;2.47;1.50;;;17.80;99.90;;;;;;5095732;28;20032;-62
2022/06/27 01:22:32;;;;;;;4.13;1.63;;;17.80;99.90;;;;;;5095357;28;20034;-62
2022/06/27 01:24:58;;;;;;;3.22;1.20;;;17.90;99.90;;;;;;5095491;28;20020;-62
2022/06/27 01:27:23;;;;;;;2.60;1.48;;;18.10;99.90;;;;;;5095510;28;20034;-61
2022/06/27 01:29:49;;;;;;;7.68;1.40;;;18.20;99.90;;;;;;5095403;28;20039;-63
2022/06/27 01:32:15;;;;;;;1.30;1.00;;;18.10;99.90;;;;;;5095570;28;20028;-60
2022/06/27 01:34:40;;;;;;;1.70;1.02;;;18.30;99.90;;;;;;5095329;28;20028;-62
2022/06/27 01:37:06;;;;;;;2.20;1.05;;;18.40;99.90;;;;;;5095827;28;20028;-61
2022/06/27 01:39:32;;;;;;;3.28;1.20;;;18.40;99.90;;;;;;5095197;28;20039;-62
2022/06/27 01:42:00;;;;;;;2.08;1.20;;;18.30;99.90;;;;;;5095368;28;20492;-61
2022/06/27 01:44:28;;;;;;;2.45;1.05;;;18.40;99.90;;;;;;5095589;28;20036;-63
2022/06/27 01:47:08;;;;;;;2.42;1.25;;;18.40;99.90;;;;;;5095427;28;20448;-61
2022/06/27 01:49:36;;;;;;;4.38;1.20;;;18.30;99.90;;;;;;5095589;28;20524;-60
2022/06/27 01:52:04;;;;;;;2.08;1.13;;;18.30;99.90;;;;;;5094974;28;20032;-62
2022/06/27 01:54:30;;;;;;;2.50;1.40;;;18.40;99.90;;;;;;5076727;28;20036;-62
2022/06/27 01:56:56;;;;;;;3.75;1.40;;;18.40;99.90;;;;;;5094856;28;20024;-62
2022/06/27 01:59:25;;;;;;;2.75;1.20;;;18.40;99.90;;;;;;5094944;28;20446;-60
2022/06/27 02:01:50;;;;;;;3.60;1.10;;;18.40;99.90;;;;;;5121371;22;20127;-63
2022/06/27 02:04:17;;;;;;;2.00;1.20;;;18.40;99.90;;;;;;5115602;28;20081;-63
2022/06/27 02:06:43;;;;;;;;;;;18.40;99.90;;;;;;5116016;28;20115;-62
2022/06/27 02:09:10;;;;;;;3.03;1.33;;;18.40;99.90;;;;;;5115493;28;19911;-61
2022/06/27 02:11:37;;;;;;;1.67;1.02;;;18.50;99.90;;;;;;5113693;28;20031;-63
2022/06/27 02:14:04;;;;;;;1.38;0.93;;;18.50;99.90;;;;;;5114833;28;20027;-63
2022/06/27 02:16:29;;;;;;;;;;;18.80;99.90;;;;;;5114807;28;20110;-63
2022/06/27 02:18:55;;;;;;;1.90;1.00;;;18.90;99.90;;;;;;5115489;28;19939;-63
2022/06/27 02:21:23;;;;;;;1.08;0.90;;;18.80;99.90;;;;;;5113389;28;20353;-63
2022/06/27 02:23:49;;;;;;;1.75;0.90;;;18.80;99.90;;;;;;5114913;28;20090;-63
2022/06/27 02:26:16;;;;;;;2.38;1.25;;;19.00;99.90;;;;;;5114710;28;20027;-62
2022/06/27 02:28:43;;;;;;;1.98;0.88;;;19.10;99.90;;;;;;5114931;28;20031;-63
2022/06/27 02:31:10;;;;;;;1.85;0.90;;;19.10;99.90;;;;;;5114608;28;20447;-64
2022/06/27 02:33:45;;;;;;;1.38;1.00;;;19.10;99.90;;;;;;5115031;28;20027;-63
2022/06/27 02:36:15;;;;;;;2.28;1.20;;;19.10;99.90;;;;;;5113174;28;20024;-63
2022/06/27 02:38:42;;;;;;;2.30;0.90;;;19.10;99.90;;;;;;5113215;28;20046;-63
2022/06/27 02:41:15;;;;;;;2.20;0.80;;;19.00;99.90;;;;;;5114695;28;20418;-64
2022/06/27 02:43:44;;;;;;;3.25;1.23;;;19.00;99.90;;;;;;5114663;28;20026;-64
2022/06/27 02:46:11;;;;;;;1.90;1.00;;;18.90;99.90;;;;;;5113003;28;20024;-62
2022/06/27 02:48:38;;;;;;;3.67;1.13;;;18.80;99.90;;;;;;5114202;28;20084;-64
2022/06/27 02:51:11;;;;;;;2.42;1.13;;;18.80;99.90;;;;;;5112873;28;20027;-63
2022/06/27 02:53:48;;;;;;;1.85;0.90;;;18.90;99.90;;;;;;5112913;28;20035;-63
2022/06/27 02:56:20;;;;;;;3.72;1.00;;;18.90;99.90;;;;;;5114305;28;20019;-64
2022/06/27 02:59:06;;;;;;;2.80;1.17;;;18.80;99.90;;;;;;5114625;28;20103;-64
2022/06/27 03:01:33;;;;;;;3.67;1.15;;;18.70;99.90;;;;;;5112585;28;20078;-64
2022/06/27 03:04:00;;;;;;;1.75;1.10;;;18.60;99.90;;;;;;5113895;28;20030;-64
2022/06/27 03:06:26;;;;;;;2.83;1.10;;;18.70;99.90;;;;;;5113940;28;20465;-63
2022/06/27 03:08:52;;;;;;;1.92;0.95;;;18.60;99.90;;;;;;5112669;28;20031;-62
2022/06/27 03:11:20;;;;;;;6.43;1.20;;;18.50;99.90;;;;;;5114253;28;20023;-63
2022/06/27 03:13:46;;;;;;;2.55;1.20;;;18.40;99.90;;;;;;5112549;28;20491;-63
2022/06/27 03:16:13;;;;;;;2.50;1.00;;;18.30;99.90;;;;;;5113973;28;20035;-64
2022/06/27 03:18:39;;;;;;;2.13;1.00;;;18.30;99.90;;;;;;5112282;28;20046;-63
2022/06/27 03:21:05;;;;;;;4.72;1.08;;;18.30;99.90;;;;;;5113550;28;20062;-63
2022/06/27 03:23:31;;;;;;;2.90;1.10;;;18.20;99.90;;;;;;5113597;28;20503;-62
2022/06/27 03:25:57;;;;;;;2.03;1.33;;;18.20;99.90;;;;;;5113995;28;20510;-62
2022/06/27 03:28:23;;;;;;;4.85;1.45;;;18.10;99.90;;;;;;5113577;28;20027;-62
2022/06/27 03:30:48;;;;;;;3.58;1.10;;;18.10;99.90;;;;;;5113582;28;20024;-63
2022/06/27 03:33:14;;;;;;;2.45;1.10;;;18.10;99.90;;;;;;5113853;28;20448;-63
2022/06/27 03:35:41;;;;;;;4.13;1.25;;;18.10;99.90;;;;;;5114277;28;20126;-62
2022/06/27 03:38:07;;;;;;;2.95;1.40;;;18.10;99.90;;;;;;5114280;28;20035;-62
2022/06/27 03:40:32;;;;;;;;;;;18.20;99.90;;;;;;5113366;28;20024;-62
2022/06/27 03:42:58;;;;;;;2.30;1.00;;;18.10;99.90;;;;;;5113690;28;19904;-62
2022/06/27 03:45:24;;;;;;;2.88;1.40;;;18.10;99.90;;;;;;5113620;28;20034;-63
2022/06/27 03:47:54;;;;;;;1.00;0.80;;;18.00;99.90;;;;;;5114429;28;20410;-64
2022/06/27 03:50:21;;;;;;;2.53;1.20;;;18.00;99.90;;;;;;5113997;28;20535;-64
2022/06/27 03:52:47;;;;;;;3.83;1.27;;;18.00;99.90;;;;;;5113304;28;20035;-62
2022/06/27 03:55:14;;;;;;;2.47;1.42;;;18.00;99.90;;;;;;5113278;28;20027;-62
2022/06/27 03:57:47;;;;;;;3.88;1.30;;;18.00;99.90;;;;;;5113450;28;20031;-64
2022/06/27 04:00:13;;;;;;;4.10;1.30;;;18.00;99.90;;;;;;5113696;28;20454;-65
2022/06/27 04:02:39;;;;;;;1.60;1.20;;;18.00;99.90;;;;;;5113200;28;20027;-64
2022/06/27 04:05:05;;;;;;;2.33;1.20;;;18.00;99.90;;;;;;5113757;28;20472;-64
2022/06/27 04:07:31;;;;;;;4.22;1.50;;;18.10;99.90;;;;;;5113211;28;20030;-63
2022/06/27 04:09:57;;;;;;;4.10;1.73;;;18.10;99.90;;;;;;5113429;28;20119;-63
2022/06/27 04:12:24;;;;;;;4.80;1.73;;;18.10;99.90;;;;;;5113723;28;20035;-63
2022/06/27 04:14:49;;;;;;;;;;;18.40;99.90;;;;;;5114376;28;20043;-63
2022/06/27 04:17:15;;;;;;;4.57;2.05;;;18.40;99.90;;;;;;5114661;28;19904;-63
2022/06/27 04:19:41;;;;;;;2.97;2.00;;;18.30;99.90;;;;;;5113350;28;20020;-63
2022/06/27 04:22:08;;;;;;;3.28;2.22;;;18.30;99.90;;;;;;5113260;28;20081;-63
2022/06/27 04:24:34;;;;;;;4.63;2.38;;;18.20;99.90;;;;;;5114769;28;20055;-64
2022/06/27 04:27:00;;;;;;;3.58;2.45;;;18.20;99.90;;;;;;5113683;28;20027;-64
2022/06/27 04:29:26;;;;;;;4.70;2.55;;;18.20;99.90;;;;;;5113131;28;20027;-64
2022/06/27 04:31:52;;;;;;;4.60;2.40;;;18.20;99.90;;;;;;5114733;28;20095;-64
2022/06/27 04:34:18;;;;;;;3.95;3.00;;;18.30;99.90;;;;;;5113157;28;21883;-64
2022/06/27 04:36:45;;;;;;;4.75;3.20;;;18.40;99.90;;;;;;5111718;28;20433;-64
2022/06/27 04:39:15;;;;;;;7.45;3.22;;;18.50;99.90;;;;;;5114374;28;20020;-64
2022/06/27 04:41:43;;;;;;;6.43;2.95;;;18.50;99.90;;;;;;5115456;28;20110;-64
2022/06/27 04:44:11;;;;;;;5.43;3.20;;;18.60;99.90;;;;;;5115355;28;20043;-64
2022/06/27 04:46:40;;;;;;;4.55;3.30;;;18.70;99.90;;;;;;5116434;28;20172;-64
2022/06/27 04:49:06;;;;;;;5.72;2.92;;;18.70;99.90;;;;;;5116938;28;20027;-64
2022/06/27 04:51:32;;;;;;;5.97;3.00;;;18.70;99.90;;;;;;5116268;28;20024;-64
2022/06/27 04:53:58;;;;;;;4.07;3.10;;;18.70;99.90;;;;;;5116728;28;20050;-63
2022/06/27 04:56:24;;;;;;;6.05;2.53;;;18.80;99.90;;;;;;5116914;28;20436;-63
2022/06/27 04:58:50;;;;;;;4.13;2.90;;;18.70;99.90;;;;;;5116506;28;20027;-62
2022/06/27 05:01:15;;;;;;;4.78;3.15;;;18.80;99.90;;;;;;5116324;28;20418;-62
2022/06/27 05:03:41;;;;;;;4.70;2.55;;;18.80;99.90;;;;;;5116488;28;20123;-63
2022/06/27 05:06:07;;;;;;;5.35;2.50;;;18.80;99.90;;;;;;5114650;28;20024;-62
2022/06/27 05:08:32;;;;;;;4.07;2.40;;;18.90;99.90;;;;;;5116082;28;20042;-62
2022/06/27 05:10:58;;;;;;;6.35;2.92;;;18.80;99.90;;;;;;5115981;28;20094;-63
2022/06/27 05:13:24;;;;;;;5.47;2.45;;;18.90;99.90;;;;;;5114836;28;20035;-63
2022/06/27 05:15:50;;;;;;;5.13;2.67;;;18.80;99.90;;;;;;5116269;28;20053;-62
2022/06/27 05:18:15;;;;;;;7.20;2.60;;;18.80;99.90;;;;;;5116487;28;20552;-63
2022/06/27 05:20:43;;;;;;;6.30;3.13;;;18.70;99.90;;;;;;5116378;28;20174;-62
2022/06/27 05:23:09;;;;;;;5.13;3.17;;;18.80;99.90;;;;;;5116189;28;20043;-63
2022/06/27 05:25:35;;;;;;;7.80;3.25;;;18.80;99.90;;;;;;5114568;28;20035;-62
2022/06/27 05:28:02;;;;;;;11.10;3.78;;;18.70;99.90;;;;;;5115791;28;20028;-63
2022/06/27 05:30:28;;;;;;;6.38;3.72;;;18.70;99.90;;;;;;5115800;28;20106;-63
2022/06/27 05:32:54;;;;;;;6.45;3.97;;;18.70;99.90;;;;;;5116729;28;20444;-63
2022/06/27 05:35:21;;;;;;;4.70;4.07;;;18.60;99.90;;;;;;5116764;28;20158;-64
2022/06/27 05:37:47;;;;;;;6.47;3.80;;;18.60;99.90;;;;;;5115591;28;20048;-64
2022/06/27 05:40:13;;;;;;;7.30;3.45;;;18.60;99.90;;;;;;5115891;28;20016;-64
2022/06/27 05:42:39;;;;;;;6.50;3.45;;;18.60;99.90;;;;;;5114437;28;20091;-65
2022/06/27 05:45:04;;;;;;;3.75;3.33;;;18.60;99.90;;;;;;5114949;28;20091;-64
2022/06/27 05:47:31;;;;;;;6.95;3.60;;;18.60;99.90;;;;;;5115701;28;20024;-64
2022/06/27 05:49:59;;;;;;;6.18;3.60;;;18.60;99.90;;;;;;5114926;28;20024;-65
2022/06/27 05:52:25;;;;;;;6.85;3.70;;;18.60;99.90;;;;;;5113443;28;20023;-64
2022/06/27 05:54:51;;;;;;;4.70;3.55;;;18.70;99.90;;;;;;5115974;28;20408;-64
2022/06/27 05:57:18;;;;;;;4.57;3.35;;;18.70;99.90;;;;;;5115138;28;20015;-65
2022/06/27 05:59:44;;;;;;;4.72;4.00;;;18.80;99.90;;;;;;5115585;28;20436;-65
2022/06/27 06:02:10;;;;;;;5.47;3.67;;;18.90;99.90;;;;;;5114864;28;20024;-65
2022/06/27 06:04:36;;;;;;;6.45;4.03;;;19.00;99.90;;;;;;5115294;28;20019;-65
2022/06/27 06:07:03;;;;;;;6.78;4.53;;;18.90;99.90;;;;;;5115227;28;20499;-64
2022/06/27 06:09:28;;;;;;;6.25;3.90;;;19.00;99.90;;;;;;5113957;28;20023;-67
2022/06/27 06:11:55;;;;;;;4.65;4.20;;;19.00;99.90;;;;;;5114676;28;20041;-66
2022/06/27 06:14:22;;;;;;;5.10;4.60;;;19.00;99.90;;;;;;5114757;28;20103;-66
2022/06/27 06:16:49;;;;;;;8.95;4.97;;;19.00;99.90;;;;;;5114948;28;20029;-67
2022/06/27 06:19:15;;;;;;;7.82;5.43;;;19.20;99.90;;;;;;5113586;28;20024;-67
2022/06/27 06:21:42;;;;;;;5.68;4.97;;;19.20;99.90;;;;;;5114884;28;20037;-66
2022/06/27 06:24:08;;;;;;;;;;;19.10;99.90;;;;;;5113765;28;20024;-65
2022/06/27 06:26:34;;;;;;;6.63;4.72;;;19.10;99.90;;;;;;5114755;28;20375;-66
2022/06/27 06:29:05;;;;;;;;;;;19.10;99.90;;;;;;5114242;28;20031;-68
2022/06/27 06:31:31;;;;;;;9.00;5.22;;;19.00;99.90;;;;;;5115109;28;19994;-67
2022/06/27 06:33:57;;;;;;;6.38;5.05;;;19.00;99.90;;;;;;5113585;28;20035;-67
2022/06/27 06:36:24;;;;;;;13.05;5.07;;;19.10;99.90;;;;;;5114450;28;20031;-64
2022/06/27 06:38:51;;;;;;;6.47;4.93;;;19.00;99.90;;;;;;5114937;28;20064;-67
2022/06/27 06:41:17;;;;;;;9.85;4.45;;;19.10;99.90;;;;;;5114185;28;20127;-67
2022/06/27 06:43:46;;;;;;;10.05;4.63;;;19.10;99.90;;;;;;5113136;28;20560;-65
2022/06/27 06:46:12;;;;;;;6.85;4.40;;;19.10;99.90;;;;;;5114772;28;20028;-66
2022/06/27 06:48:40;;;;;;;5.60;4.03;;;19.20;99.90;;;;;;5114677;28;20050;-64
2022/06/27 06:51:07;;;;;;;10.93;4.18;;;19.30;99.90;;;;;;5116336;28;20028;-65
2022/06/27 06:53:36;;;;;;;10.13;4.40;;;19.30;99.90;;;;;;5116469;28;20030;-63
2022/06/27 06:56:04;;;;;;;7.18;4.32;;;19.30;99.90;;;;;;5114318;28;20072;-64
2022/06/27 06:58:29;;;;;;;5.03;3.50;;;19.30;99.90;;;;;;5114191;28;20066;-63
2022/06/27 07:00:56;;;;;;;5.80;4.35;;;19.30;99.90;;;;;;5114510;28;20115;-64
2022/06/27 07:03:22;;;;;;;;;;;19.30;99.90;;;;;;5113873;28;20028;-64
2022/06/27 07:05:47;;;;;;;5.32;3.38;;;19.30;99.90;;;;;;5114174;28;19918;-63
2022/06/27 07:08:14;;;;;;;6.32;4.07;;;19.30;99.90;;;;;;5113947;28;20027;-62
2022/06/27 07:10:40;;;;;;;4.85;3.90;;;19.30;99.90;;;;;;5112579;28;20365;-64
2022/06/27 07:13:06;;;;;;;7.57;4.70;;;19.30;99.90;;;;;;5113814;28;20019;-65
2022/06/27 07:15:33;;;;;;;10.45;4.45;;;19.30;99.90;;;;;;5112586;28;20072;-64
2022/06/27 07:18:00;;;;;;;10.90;4.47;;;19.20;99.90;;;;;;5114238;28;20107;-63
2022/06/27 07:20:26;;;;;;;6.22;5.22;;;19.10;99.90;;;;;;5116752;28;20040;-64
2022/06/27 07:22:51;;;;;;;7.82;5.35;;;19.20;99.90;;;;;;5114219;28;20029;-63
2022/06/27 07:25:18;;;;;;;7.85;5.40;;;19.10;99.90;;;;;;5113779;28;20027;-64
2022/06/27 07:27:45;;;;;;;8.10;5.82;;;19.10;99.90;;;;;;5113860;28;20028;-63
2022/06/27 07:30:12;;;;;;;7.63;5.45;;;19.20;99.90;;;;;;5112418;28;20035;-62
2022/06/27 07:32:42;;;;;;;11.10;5.90;;;19.20;99.90;;;;;;5113558;28;20103;-64
2022/06/27 07:35:12;;;;;;;8.07;6.00;;;19.20;99.90;;;;;;5113644;28;20035;-65
2022/06/27 07:37:44;;;;;;;13.20;6.32;;;19.20;99.90;;;;;;5113606;28;20016;-62
2022/06/27 07:40:10;;;;;;;18.40;7.80;;;19.20;99.90;;;;;;5113711;28;20019;-64
2022/06/27 07:42:36;;;;;;;9.93;6.63;;;19.20;99.90;;;;;;5113518;28;20020;-63
2022/06/27 07:45:02;;;;;;;24.30;10.18;;;19.30;99.90;;;;;;5114448;28;20032;-64
2022/06/27 07:47:28;;;;;;;19.38;8.73;;;19.40;99.90;;;;;;5117371;28;20040;-63
2022/06/27 07:49:54;;;;;;;7.68;6.93;;;19.60;99.90;;;;;;5117888;28;20062;-62
2022/06/27 07:52:19;;;;;;;8.45;6.82;;;19.90;99.90;;;;;;5112389;28;20027;-63
2022/06/27 07:54:45;;;;;;;7.38;6.30;;;20.10;99.90;;;;;;5111967;28;20035;-63
2022/06/27 07:57:10;;;;;;;7.25;6.25;;;20.30;99.90;;;;;;5113631;28;20452;-63
2022/06/27 07:59:38;;;;;;;8.98;6.78;;;20.40;99.90;;;;;;5113349;28;20377;-63
2022/06/27 08:02:04;;;;;;;12.85;10.55;;;20.50;99.90;;;;;;5112190;28;20042;-69
2022/06/27 08:04:30;;;;;;;9.52;7.32;;;20.50;99.90;;;;;;5113491;28;20031;-69
2022/06/27 08:06:56;;;;;;;14.00;11.20;;;20.40;99.90;;;;;;5114701;28;20065;-68
2022/06/27 08:09:22;;;;;;;;;;;20.30;99.90;;;;;;5114607;28;20027;-69
2022/06/27 08:11:49;;;;;;;11.45;7.30;;;20.10;99.90;;;;;;5113874;28;19904;-69
2022/06/27 08:14:17;;;;;;;8.68;7.75;;;20.00;99.90;;;;;;5114884;28;20035;-70
2022/06/27 08:16:46;;;;;;;9.52;8.52;;;19.90;99.90;;;;;;5116030;28;20087;-71
2022/06/27 08:19:12;;;;;;;10.07;7.90;;;19.80;99.90;;;;;;5118120;28;20100;-66
2022/06/27 08:21:41;;;;;;;;;;;19.80;99.90;;;;;;5117788;28;20492;-69
2022/06/27 08:24:08;;;;;;;10.48;7.88;;;19.80;99.90;;;;;;5117701;28;19908;-67
2022/06/27 08:26:35;;;;;;;11.30;8.88;;;19.80;99.90;;;;;;5119102;28;20020;-67
2022/06/27 08:29:03;;;;;;;10.88;8.82;;;19.80;99.90;;;;;;5115987;28;20027;-69
2022/06/27 08:31:30;;;;;;;10.00;8.20;;;19.80;99.90;;;;;;5116591;28;20020;-68
2022/06/27 08:34:00;;;;;;;12.88;9.52;;;19.90;99.90;;;;;;5116483;28;20048;-68
2022/06/27 08:36:30;;;;;;;39.92;30.50;;;19.90;99.90;;;;;;5117387;28;20061;-68
2022/06/27 08:38:58;;;;;;;11.80;9.15;;;19.90;99.90;;;;;;5117356;28;20061;-68
2022/06/27 08:41:24;;;;;;;14.57;9.55;;;19.80;99.90;;;;;;5117112;28;20016;-68
2022/06/27 08:43:58;;;;;;;;;;;19.70;99.90;;;;;;5117786;28;20219;-68
2022/06/27 08:46:24;;;;;;;12.00;8.68;;;19.70;99.90;;;;;;5118265;28;20015;-67
2022/06/27 08:48:50;;;;;;;12.65;9.57;;;19.70;99.90;;;;;;5117471;28;20333;-67
2022/06/27 08:51:17;;;;;;;12.05;9.88;;;19.70;99.90;;;;;;5117201;28;20020;-67
2022/06/27 08:53:43;;;;;;;10.38;9.25;;;19.70;99.90;;;;;;5116595;28;20076;-66
2022/06/27 08:56:12;;;;;;;9.60;8.57;;;19.80;99.90;;;;;;5116386;28;20388;-66
2022/06/27 08:58:39;;;;;;;8.80;7.43;;;20.00;99.90;;;;;;5116772;28;20494;-69
2022/06/27 09:01:06;;;;;;;11.13;7.10;;;20.30;99.90;;;;;;5116242;28;20032;-66
2022/06/27 09:03:35;;;;;;;8.57;7.60;;;20.50;99.90;;;;;;5116413;28;20080;-67
2022/06/27 09:06:03;;;;;;;10.02;7.85;;;20.70;99.90;;;;;;5116446;28;20483;-68
2022/06/27 09:08:32;;;;;;;8.38;7.55;;;20.70;99.90;;;;;;5116324;28;20024;-67
2022/06/27 09:10:59;;;;;;;8.70;7.43;;;20.60;99.90;;;;;;5115001;28;20030;-67
2022/06/27 09:13:27;;;;;;;9.38;7.80;;;20.60;99.90;;;;;;5116689;28;20135;-67
2022/06/27 09:15:55;;;;;;;8.02;7.22;;;20.50;99.90;;;;;;5116599;28;20019;-66
2022/06/27 09:18:26;;;;;;;7.55;6.75;;;20.40;99.90;;;;;;5115507;28;20422;-65
2022/06/27 09:20:59;;;;;;;8.48;6.95;;;20.40;99.90;;;;;;5119328;28;20384;-66
2022/06/27 09:23:58;;;;;;;8.57;7.13;;;20.30;99.90;;;;;;5119455;28;20023;-65
2022/06/27 09:26:34;;;;;;;12.05;7.18;;;20.20;99.90;;;;;;5120510;28;20027;-66
2022/06/27 09:29:06;;;;;;;9.07;8.18;;;20.30;99.90;;;;;;5121596;28;20023;-67
2022/06/27 09:31:37;;;;;;;8.98;8.05;;;20.40;99.90;;;;;;5121129;28;20047;-66
2022/06/27 09:34:23;;;;;;;9.13;6.72;;;21.20;99.90;;;;;;5117232;28;20387;-67
2022/06/27 09:36:55;;;;;;;7.80;5.75;;;22.30;99.90;;;;;;5114341;28;20395;-66
2022/06/27 09:39:34;;;;;;;7.90;4.93;;;23.80;99.90;;;;;;5114148;28;20048;-66
2022/06/27 09:42:13;;;;;;;6.63;5.10;;;25.90;99.90;;;;;;5114490;28;20024;-67
2022/06/27 09:44:44;;;;;;;7.53;5.38;;;26.20;99.90;;;;;;5114590;28;20429;-67
2022/06/27 09:47:23;;;;;;;6.82;4.90;;;25.60;99.90;;;;;;5115534;28;20053;-67
2022/06/27 09:49:52;;;;;;;5.45;4.55;;;25.50;99.90;;;;;;5116096;28;20119;-67
2022/06/27 09:52:20;;;;;;;6.72;5.00;;;25.60;99.90;;;;;;5115742;28;20077;-68
2022/06/27 09:54:48;;;;;;;5.47;4.68;;;25.40;99.90;;;;;;5118690;28;20024;-68
2022/06/27 09:57:16;;;;;;;7.22;5.38;;;25.30;99.90;;;;;;5116134;28;20016;-68
2022/06/27 09:59:44;;;;;;;5.30;4.80;;;25.60;99.90;;;;;;5115468;28;20023;-68
2022/06/27 10:02:11;;;;;;;7.32;5.20;;;26.40;99.90;;;;;;5115345;28;20043;-66
2022/06/27 10:04:37;;;;;;;7.05;5.00;;;25.80;99.90;;;;;;5115241;28;20042;-66
2022/06/27 10:07:07;;;;;;;6.95;5.72;;;25.20;99.90;;;;;;5115235;28;20015;-66
2022/06/27 10:09:35;;;;;;;7.07;5.40;;;24.70;99.90;;;;;;5115430;28;20027;-66
2022/06/27 10:12:20;;;;;;;6.45;5.53;;;24.30;99.90;;;;;;5114899;28;20046;-66
2022/06/27 10:15:06;;;;;;;8.15;5.50;;;23.60;99.90;;;;;;5114856;28;20024;-66
2022/06/27 10:17:35;;;;;;;7.03;5.38;;;23.00;99.90;;;;;;5113509;28;20020;-66
2022/06/27 10:20:05;;;;;;;6.60;5.60;;;22.50;99.90;;;;;;5114834;28;20032;-66
2022/06/27 10:22:31;;;;;;;7.47;6.07;;;22.10;99.90;;;;;;5114955;28;20468;-66
2022/06/27 10:25:26;;;;;;;6.65;5.88;;;22.00;99.90;;;;;;5114949;28;20038;-65
2022/06/27 10:28:09;;;;;;;6.38;5.78;;;22.00;99.90;;;;;;5113345;28;20132;-65
2022/06/27 10:30:43;;;;;;;8.18;6.50;;;22.10;99.90;;;;;;5115024;28;20087;-66
2022/06/27 10:33:21;;;;;;;8.95;6.28;;;22.10;99.90;;;;;;5114466;28;20034;-66
2022/06/27 10:38:23;;;;;;;7.03;6.30;;;22.40;99.90;;;;;;5114402;28;20468;-66
2022/06/27 10:40:50;;;;;;;9.95;6.97;;;22.30;99.90;;;;;;5114504;28;20432;-66
2022/06/27 10:43:37;;;;;;;8.00;6.60;;;22.30;99.90;;;;;;5114599;28;20027;-67
2022/06/27 10:46:09;;;;;;;7.93;7.00;;;22.30;99.90;;;;;;5114439;28;20020;-65
2022/06/27 10:48:40;;;;;;;8.75;7.30;;;22.30;99.90;;;;;;5114793;28;20030;-66
2022/06/27 10:51:21;;;;;;;9.65;7.47;;;22.30;99.90;;;;;;5113603;28;20024;-67
2022/06/27 10:53:49;;;;;;;10.00;7.30;;;22.50;99.90;;;;;;5114960;28;20114;-67
2022/06/27 10:56:29;;;;;;;11.10;7.50;;;22.30;99.90;;;;;;5114297;28;20024;-66
2022/06/27 10:58:55;;;;;;;9.88;6.68;;;22.20;99.90;;;;;;5112976;28;20093;-66
2022/06/27 11:01:21;;;;;;;8.68;7.15;;;22.10;99.90;;;;;;5114141;28;20072;-66
2022/06/27 11:03:48;;;;;;;8.93;7.30;;;22.10;99.90;;;;;;5114490;28;20110;-66
2022/06/27 11:06:14;;;;;;;11.10;7.35;;;22.10;99.90;;;;;;5114006;28;20031;-66
2022/06/27 11:08:43;;;;;;;9.15;7.15;;;21.90;99.90;;;;;;5114054;28;20027;-66
2022/06/27 11:11:14;;;;;;;8.80;6.75;;;21.80;99.90;;;;;;5112509;28;20024;-66
2022/06/27 11:13:42;;;;;;;8.25;7.13;;;21.70;99.90;;;;;;5114243;28;20031;-67
2022/06/27 11:16:15;;;;;;;8.05;7.25;;;21.60;99.90;;;;;;5114077;28;20028;-65
2022/06/27 11:18:52;;;;;;;9.90;7.18;;;21.50;99.90;;;;;;5112588;28;20380;-69
2022/06/27 11:21:19;;;;;;;10.13;6.97;;;21.50;99.90;;;;;;5113154;28;20054;-69
2022/06/27 11:24:02;;;;;;;7.25;6.38;;;21.50;99.90;;;;;;5113472;28;20107;-67
2022/06/27 11:26:33;;;;;;;15.30;8.18;;;21.50;99.90;;;;;;5114779;28;20028;-68
2022/06/27 11:32:02;;;;;;;7.53;5.45;;;21.80;99.90;;;;;;5114165;28;20031;-67
2022/06/27 11:34:30;;;;;;;6.97;5.90;;;21.90;99.90;;;;;;5112268;28;20024;-66
2022/06/27 11:36:57;;;;;;;8.23;5.55;;;22.00;99.90;;;;;;5114087;28;20023;-68
2022/06/27 11:39:28;;;;;;;5.70;5.07;;;22.40;99.90;;;;;;5113638;28;20024;-68
2022/06/27 11:42:13;;;;;;;7.25;4.57;;;22.80;99.90;;;;;;5113570;28;20023;-69
2022/06/27 11:44:59;;;;;;;7.15;4.20;;;23.20;99.90;;;;;;5113861;28;20020;-69
2022/06/27 11:47:28;;;;;;;6.85;4.22;;;23.30;99.90;;;;;;5113222;28;20054;-69
2022/06/27 11:50:06;;;;;;;6.90;3.90;;;23.40;99.90;;;;;;5115118;28;20024;-70
2022/06/27 11:52:43;;;;;;;4.50;3.03;;;23.60;99.90;;;;;;5118110;28;20491;-70
2022/06/27 11:55:21;;;;;;;4.45;2.72;;;23.70;99.90;;;;;;5118089;28;20034;-70
2022/06/27 11:57:53;;;;;;;3.63;3.00;;;23.60;99.90;;;;;;5117963;28;20058;-66
2022/06/27 12:00:24;;;;;;;5.32;2.75;;;23.50;99.90;;;;;;5118120;28;20022;-67
2022/06/27 12:03:07;;;;;;;5.15;2.90;;;23.60;99.90;;;;;;5117302;28;20031;-68
2022/06/27 12:05:34;;;;;;;3.85;3.03;;;23.70;99.90;;;;;;5117299;28;20085;-67
2022/06/27 12:08:03;;;;;;;3.30;2.92;;;23.90;99.90;;;;;;5117404;28;20107;-67
2022/06/27 12:10:36;;;;;;;3.47;3.17;;;24.00;99.90;;;;;;5117615;28;20028;-69
2022/06/27 12:13:15;;;;;;;4.80;3.05;;;24.30;99.90;;;;;;5117279;28;20028;-70
2022/06/27 12:15:44;;;;;;;3.95;3.50;;;24.40;99.90;;;;;;5117341;28;20095;-69
2022/06/27 12:18:12;;;;;;;4.10;3.30;;;24.40;99.90;;;;;;5116324;28;20059;-69
2022/06/27 12:20:40;;;;;;;4.18;3.00;;;24.40;99.90;;;;;;5116971;28;20043;-69
2022/06/27 12:23:06;;;;;;;3.70;2.97;;;24.40;99.90;;;;;;5115513;28;20115;-69
2022/06/27 12:25:35;;;;;;;;;;;24.40;99.90;;;;;;5117180;28;20165;-69
2022/06/27 12:28:05;;;;;;;3.65;2.85;;;24.30;99.90;;;;;;5124776;28;19904;-71
2022/06/27 12:30:31;;;;;;;3.30;2.60;;;24.20;99.90;;;;;;5123939;28;20039;-69
2022/06/27 12:32:57;;;;;;;5.18;3.15;;;23.90;99.90;;;;;;5117840;28;20023;-69
2022/06/27 12:35:22;;;;;;;;;;;23.70;99.90;;;;;;5117172;28;20103;-68
2022/06/27 12:37:48;;;;;;;9.32;6.47;;;23.60;99.90;;;;;;5117099;28;19918;-68
2022/06/27 12:40:14;;;;;;;;;;;23.40;99.90;;;;;;5118624;28;20024;-68
2022/06/27 12:42:39;;;;;;;46.40;24.83;;;23.40;99.90;;;;;;5119781;28;20347;-69
2022/06/27 12:45:05;;;;;;;;;;;23.40;99.90;;;;;;5118398;28;20027;-69
2022/06/27 12:47:30;;;;;;;5.60;4.45;;;23.40;99.90;;;;;;5117479;28;19998;-68
2022/06/27 12:49:56;;;;;;;;;;;23.30;99.90;;;;;;5117515;28;20123;-68
2022/06/27 12:52:22;;;;;;;9.45;6.00;;;23.30;99.90;;;;;;5118187;28;19904;-69
2022/06/27 12:54:47;;;;;;;;;;;23.20;99.90;;;;;;5118818;28;20035;-68
2022/06/27 12:57:13;;;;;;;14.02;8.18;;;23.10;99.90;;;;;;5117230;28;20272;-68
2022/06/27 12:59:43;;;;;;;9.20;4.05;;;23.10;99.90;;;;;;5115936;28;20380;-68
2022/06/27 13:02:09;;;;;;;4.18;2.38;;;23.00;99.90;;;;;;5116369;28;20027;-70